createdAt,value
2023-05-13T00:02:18.655Z,5.30
2023-05-13T00:04:46.659Z,10.40
2023-05-13T00:07:14.678Z,7.97
2023-05-13T00:09:44.130Z,5.65
2023-05-13T00:12:12.308Z,5.00
2023-05-13T00:14:40.271Z,6.00
2023-05-13T00:17:08.532Z,4.30
2023-05-13T00:19:36.642Z,4.50
2023-05-13T00:22:04.865Z,7.13
2023-05-13T00:24:32.820Z,5.82
2023-05-13T00:27:02.248Z,4.97
2023-05-13T00:29:33.047Z,5.70
2023-05-13T00:32:01.093Z,5.07
2023-05-13T00:34:29.259Z,5.43
2023-05-13T00:36:57.814Z,6.43
2023-05-13T00:39:25.863Z,6.78
2023-05-13T00:41:53.915Z,6.93
2023-05-13T00:44:23.479Z,6.47
2023-05-13T00:46:51.760Z,5.32
2023-05-13T00:49:19.867Z,5.50
2023-05-13T00:51:48.033Z,6.38
2023-05-13T00:54:16.113Z,6.88
2023-05-13T00:56:44.344Z,6.00
2023-05-13T00:59:13.332Z,5.35
2023-05-13T01:01:49.168Z,5.82
2023-05-13T01:04:28.470Z,5.57
2023-05-13T01:07:05.532Z,5.75
2023-05-13T01:09:43.354Z,6.13
2023-05-13T01:12:20.252Z,6.40
2023-05-13T01:14:55.354Z,6.53
2023-05-13T01:17:32.930Z,6.30
2023-05-13T01:20:03.919Z,10.20
2023-05-13T01:22:33.341Z,7.03
2023-05-13T01:25:01.879Z,8.60
2023-05-13T01:27:30.070Z,7.13
2023-05-13T01:29:58.651Z,7.90
2023-05-13T01:32:27.269Z,6.82
2023-05-13T01:34:56.684Z,9.65
2023-05-13T01:37:25.101Z,7.05
2023-05-13T01:39:54.643Z,7.50
2023-05-13T01:42:23.781Z,7.03
2023-05-13T01:44:52.781Z,10.98
2023-05-13T01:47:20.852Z,7.18
2023-05-13T01:49:48.952Z,8.30
2023-05-13T01:52:16.974Z,12.00
2023-05-13T01:54:45.076Z,7.03
2023-05-13T01:57:14.439Z,6.32
2023-05-13T01:59:42.474Z,7.80
2023-05-13T02:02:10.569Z,7.72
2023-05-13T02:04:38.907Z,9.50
2023-05-13T02:07:07.038Z,6.95
2023-05-13T02:09:35.106Z,9.90
2023-05-13T02:12:03.504Z,8.80
2023-05-13T02:14:34.365Z,9.45
2023-05-13T02:17:03.325Z,10.07
2023-05-13T02:19:33.493Z,7.88
2023-05-13T02:22:01.492Z,10.50
2023-05-13T02:24:31.139Z,7.35
2023-05-13T02:26:59.185Z,7.95
2023-05-13T02:29:27.364Z,8.38
2023-05-13T02:31:56.838Z,9.60
2023-05-13T02:34:24.979Z,8.75
2023-05-13T02:36:53.426Z,9.55
2023-05-13T02:39:21.530Z,9.30
2023-05-13T02:41:49.508Z,8.02
2023-05-13T02:44:17.640Z,9.48
2023-05-13T02:46:45.705Z,8.50
2023-05-13T02:49:15.088Z,11.52
2023-05-13T02:51:43.100Z,7.90
2023-05-13T02:54:11.177Z,12.95
2023-05-13T02:56:39.257Z,8.32
2023-05-13T02:59:07.332Z,7.38
2023-05-13T03:01:35.385Z,9.43
2023-05-13T03:04:03.694Z,8.90
2023-05-13T03:06:33.156Z,10.40
2023-05-13T03:09:01.125Z,6.75
2023-05-13T03:11:29.433Z,9.30
2023-05-13T03:13:57.437Z,10.00
2023-05-13T03:16:25.580Z,8.88
2023-05-13T03:18:53.642Z,8.07
2023-05-13T03:21:21.663Z,8.27
2023-05-13T03:23:51.224Z,7.80
2023-05-13T03:26:19.816Z,11.38
2023-05-13T03:28:47.774Z,7.97
2023-05-13T03:31:16.008Z,8.60
2023-05-13T03:33:44.441Z,8.50
2023-05-13T03:36:12.556Z,8.57
2023-05-13T03:38:40.714Z,7.28
2023-05-13T03:41:10.270Z,9.60
2023-05-13T03:43:38.296Z,10.30
2023-05-13T03:46:06.489Z,9.07
2023-05-13T03:48:34.572Z,9.15
2023-05-13T03:51:02.654Z,10.77
2023-05-13T03:53:30.820Z,7.72
2023-05-13T03:55:59.098Z,7.50
2023-05-13T03:58:28.608Z,7.80
2023-05-13T04:00:56.679Z,6.80
2023-05-13T04:03:24.848Z,6.68
2023-05-13T04:05:53.103Z,10.30
2023-05-13T04:08:21.475Z,7.05
2023-05-13T04:10:49.565Z,8.73
2023-05-13T04:13:17.704Z,6.70
2023-05-13T04:15:47.249Z,7.07
2023-05-13T04:18:15.213Z,7.35
2023-05-13T04:20:43.353Z,6.60
2023-05-13T04:23:11.584Z,6.50
2023-05-13T04:25:39.608Z,6.55
2023-05-13T04:28:07.581Z,7.30
2023-05-13T04:30:36.196Z,7.68
2023-05-13T04:33:16.793Z,7.90
2023-05-13T04:35:44.998Z,6.88
2023-05-13T04:38:13.783Z,6.88
2023-05-13T04:40:41.893Z,7.15
2023-05-13T04:43:09.923Z,7.90
2023-05-13T04:45:38.631Z,6.57
2023-05-13T04:48:08.605Z,7.10
2023-05-13T04:50:36.750Z,8.48
2023-05-13T04:53:05.165Z,6.95
2023-05-13T04:55:33.298Z,5.90
2023-05-13T04:58:01.522Z,7.65
2023-05-13T05:00:29.588Z,12.88
2023-05-13T05:02:58.007Z,7.47
2023-05-13T05:05:27.583Z,6.20
2023-05-13T05:08:03.677Z,6.78
2023-05-13T05:10:31.663Z,9.55
2023-05-13T05:12:59.998Z,10.02
2023-05-13T05:15:29.817Z,6.10
2023-05-13T05:17:58.377Z,6.90
2023-05-13T05:20:28.035Z,6.10
2023-05-13T05:22:55.952Z,7.32
2023-05-13T05:25:24.810Z,8.65
2023-05-13T05:27:53.000Z,6.75
2023-05-13T05:30:21.288Z,6.03
2023-05-13T05:32:49.693Z,5.68
2023-05-13T05:35:19.729Z,8.70
2023-05-13T05:37:49.213Z,6.28
2023-05-13T05:40:17.263Z,5.60
2023-05-13T05:42:46.520Z,5.22
2023-05-13T05:45:16.636Z,9.07
2023-05-13T05:47:44.828Z,5.68
2023-05-13T05:50:12.991Z,7.05
2023-05-13T05:52:41.147Z,5.18
2023-05-13T05:55:11.274Z,7.72
2023-05-13T05:57:39.424Z,7.25
2023-05-13T06:00:09.144Z,7.45
2023-05-13T06:02:37.316Z,7.43
2023-05-13T06:05:06.051Z,5.43
2023-05-13T06:07:34.017Z,7.43
2023-05-13T06:10:02.262Z,7.60
2023-05-13T06:12:32.234Z,6.57
2023-05-13T06:15:00.291Z,5.22
2023-05-13T06:17:28.293Z,6.82
2023-05-13T06:19:57.738Z,7.07
2023-05-13T06:22:25.746Z,5.85
2023-05-13T06:24:53.762Z,6.15
2023-05-13T06:27:21.825Z,6.35
2023-05-13T06:29:51.761Z,8.30
2023-05-13T06:32:20.585Z,7.47
2023-05-13T06:34:49.508Z,7.18
2023-05-13T06:37:17.570Z,8.00
2023-05-13T06:39:45.621Z,6.28
2023-05-13T06:42:14.283Z,6.80
2023-05-13T06:44:42.438Z,5.78
2023-05-13T06:47:15.834Z,6.25
2023-05-13T06:49:44.198Z,5.60
2023-05-13T06:52:12.212Z,5.47
2023-05-13T06:54:40.271Z,6.78
2023-05-13T06:57:08.314Z,6.30
2023-05-13T06:59:37.162Z,6.10
2023-05-13T07:02:09.887Z,5.40
2023-05-13T07:04:39.460Z,5.55
2023-05-13T07:07:07.455Z,7.65
2023-05-13T07:09:35.617Z,8.20
2023-05-13T07:12:03.638Z,6.05
2023-05-13T07:14:31.684Z,8.65
2023-05-13T07:16:59.759Z,6.72
2023-05-13T07:19:27.806Z,5.72
2023-05-13T07:21:57.257Z,9.30
2023-05-13T07:24:25.327Z,9.85
2023-05-13T07:26:53.304Z,9.35
2023-05-13T07:29:21.408Z,5.85
2023-05-13T07:31:49.397Z,8.90
2023-05-13T07:34:17.387Z,6.97
2023-05-13T07:36:46.044Z,9.13
2023-05-13T07:39:16.558Z,9.80
2023-05-13T07:41:44.528Z,10.77
2023-05-13T07:44:13.247Z,6.85
2023-05-13T07:46:41.236Z,8.05
2023-05-13T07:49:09.261Z,9.15
2023-05-13T07:51:37.620Z,8.43
2023-05-13T07:54:05.682Z,7.20
2023-05-13T07:56:34.997Z,10.30
2023-05-13T07:59:03.039Z,8.07
2023-05-13T08:01:31.197Z,10.80
2023-05-13T08:04:01.550Z,7.40
2023-05-13T08:06:29.712Z,8.13
2023-05-13T08:08:57.744Z,9.43
2023-05-13T08:11:26.297Z,11.30
2023-05-13T08:13:55.876Z,8.20
2023-05-13T08:16:24.035Z,8.48
2023-05-13T08:18:52.056Z,8.70
2023-05-13T08:21:20.063Z,8.40
2023-05-13T08:23:48.035Z,8.73
2023-05-13T08:26:15.983Z,9.80
2023-05-13T08:28:43.995Z,7.78
2023-05-13T08:31:14.689Z,9.35
2023-05-13T08:33:43.034Z,11.02
2023-05-13T08:36:11.307Z,11.77
2023-05-13T08:38:39.285Z,7.65
2023-05-13T08:41:07.857Z,8.23
2023-05-13T08:43:39.177Z,8.88
2023-05-13T08:46:11.184Z,8.25
2023-05-13T08:48:50.252Z,7.75
2023-05-13T08:51:18.265Z,6.88
2023-05-13T08:53:47.453Z,8.07
2023-05-13T08:56:15.439Z,11.05
2023-05-13T08:58:43.329Z,9.15
2023-05-13T09:01:11.402Z,8.75
2023-05-13T09:03:52.646Z,8.98
2023-05-13T09:06:20.975Z,9.48
2023-05-13T09:08:49.532Z,10.48
2023-05-13T09:11:17.836Z,10.20
2023-05-13T09:13:45.889Z,9.45
2023-05-13T09:16:15.365Z,8.43
2023-05-13T09:18:44.856Z,8.95
2023-05-13T09:21:25.826Z,11.60
2023-05-13T09:24:03.445Z,10.80
2023-05-13T09:26:31.551Z,8.15
2023-05-13T09:29:18.396Z,8.40
2023-05-13T09:31:48.817Z,8.05
2023-05-13T09:34:26.562Z,11.10
2023-05-13T09:37:04.945Z,9.65
2023-05-13T09:39:35.675Z,10.45
2023-05-13T09:42:05.438Z,7.35
2023-05-13T09:44:34.098Z,6.45
2023-05-13T09:47:03.441Z,6.47
2023-05-13T09:49:33.797Z,7.38
2023-05-13T09:52:02.121Z,6.30
2023-05-13T09:54:37.234Z,6.95
2023-05-13T09:57:06.078Z,6.55
2023-05-13T09:59:34.792Z,6.68
2023-05-13T10:02:06.292Z,7.22
2023-05-13T10:04:41.349Z,9.00
2023-05-13T10:07:11.014Z,5.78
2023-05-13T10:09:41.026Z,6.10
2023-05-13T10:12:10.500Z,5.38
2023-05-13T10:14:39.264Z,8.98
2023-05-13T10:17:09.276Z,6.57
2023-05-13T10:19:38.834Z,5.88
2023-05-13T10:22:07.653Z,5.78
2023-05-13T10:24:39.790Z,5.07
2023-05-13T10:27:08.583Z,5.20
2023-05-13T10:29:38.924Z,4.72
2023-05-13T10:32:09.002Z,5.65
2023-05-13T10:34:39.738Z,4.60
2023-05-13T10:37:26.086Z,5.75
2023-05-13T10:40:28.262Z,5.10
2023-05-13T10:43:11.241Z,4.55
2023-05-13T10:45:39.216Z,4.65
2023-05-13T10:48:08.452Z,4.35
2023-05-13T10:50:39.875Z,5.50
2023-05-13T10:53:18.824Z,5.28
2023-05-13T10:55:46.837Z,4.93
2023-05-13T10:58:16.092Z,4.97
2023-05-13T11:00:46.089Z,4.05
2023-05-13T11:03:16.108Z,4.07
2023-05-13T11:05:48.129Z,9.05
2023-05-13T11:08:36.976Z,4.20
2023-05-13T11:11:17.708Z,4.10
2023-05-13T11:13:45.935Z,5.65
2023-05-13T11:16:15.083Z,3.83
2023-05-13T11:18:43.296Z,4.00
2023-05-13T11:21:12.665Z,3.50
2023-05-13T11:23:53.537Z,3.80
2023-05-13T11:26:22.084Z,4.07
2023-05-13T11:29:01.308Z,3.70
2023-05-13T11:31:30.143Z,4.75
2023-05-13T11:34:09.640Z,3.90
2023-05-13T11:36:40.502Z,4.10
2023-05-13T11:39:11.251Z,4.07
2023-05-13T11:41:41.795Z,5.03
2023-05-13T11:44:10.448Z,3.92
2023-05-13T11:46:38.529Z,4.80
2023-05-13T11:49:07.494Z,4.10
2023-05-13T11:51:35.898Z,4.53
2023-05-13T11:54:06.344Z,3.70
2023-05-13T11:56:34.281Z,4.57
2023-05-13T11:59:15.684Z,6.03
2023-05-13T12:01:43.846Z,4.80
2023-05-13T12:04:11.917Z,5.72
2023-05-13T12:06:46.521Z,4.28
2023-05-13T12:09:15.960Z,4.82
2023-05-13T12:11:44.043Z,6.07
2023-05-13T12:14:12.065Z,4.28
2023-05-13T12:16:41.935Z,5.93
2023-05-13T12:19:10.218Z,4.30
2023-05-13T12:21:39.508Z,4.68
2023-05-13T12:24:20.028Z,4.88
2023-05-13T12:26:48.182Z,4.32
2023-05-13T12:29:16.314Z,21.80
2023-05-13T12:32:03.195Z,6.63
2023-05-13T12:34:35.516Z,6.70
2023-05-13T12:37:13.968Z,4.25
2023-05-13T12:39:44.083Z,4.13
2023-05-13T12:42:16.073Z,4.88
2023-05-13T12:44:45.721Z,4.32
2023-05-13T12:47:20.179Z,4.85
2023-05-13T12:49:54.979Z,5.28
2023-05-13T12:52:23.361Z,4.53
2023-05-13T12:54:52.772Z,5.35
2023-05-13T12:57:21.474Z,5.72
2023-05-13T12:59:49.414Z,5.88
2023-05-13T13:02:17.469Z,4.68
2023-05-13T13:04:45.453Z,6.30
2023-05-13T13:07:14.726Z,4.60
2023-05-13T13:09:42.799Z,4.43
2023-05-13T13:12:12.220Z,4.53
2023-05-13T13:14:40.149Z,5.50
2023-05-13T13:17:08.348Z,4.93
2023-05-13T13:19:37.457Z,5.20
2023-05-13T13:22:05.702Z,4.75
2023-05-13T13:24:33.680Z,6.68
2023-05-13T13:27:01.742Z,5.82
2023-05-13T13:29:31.159Z,4.53
2023-05-13T13:31:59.223Z,5.10
2023-05-13T13:34:27.291Z,5.47
2023-05-13T13:36:55.403Z,8.35
2023-05-13T13:39:23.405Z,5.95
2023-05-13T13:41:51.429Z,5.68
2023-05-13T13:44:19.506Z,5.80
2023-05-13T13:46:48.912Z,5.38
2023-05-13T13:49:23.748Z,7.13
2023-05-13T13:51:52.597Z,6.10
2023-05-13T13:54:20.939Z,5.97
2023-05-13T13:56:49.576Z,5.80
2023-05-13T13:59:19.200Z,5.05
2023-05-13T14:01:48.928Z,6.18
2023-05-13T14:04:20.310Z,5.30
2023-05-13T14:06:48.510Z,7.95
2023-05-13T14:09:17.075Z,7.40
2023-05-13T14:11:45.086Z,7.05
2023-05-13T14:14:13.294Z,6.13
2023-05-13T14:16:41.665Z,6.65
2023-05-13T14:19:12.342Z,11.82
2023-05-13T14:21:40.647Z,6.18
2023-05-13T14:24:11.904Z,7.28
2023-05-13T14:26:40.236Z,6.43
2023-05-13T14:29:08.289Z,5.88
2023-05-13T14:31:36.584Z,7.72
2023-05-13T14:34:07.817Z,5.38
2023-05-13T14:36:37.542Z,6.15
2023-05-13T14:39:05.596Z,4.88
2023-05-13T14:41:33.676Z,5.68
2023-05-13T14:44:02.077Z,6.43
2023-05-13T14:46:30.067Z,5.45
2023-05-13T14:48:58.123Z,5.75
2023-05-13T14:51:26.106Z,6.05
2023-05-13T14:53:55.941Z,4.95
2023-05-13T14:56:25.138Z,5.43
2023-05-13T14:58:53.531Z,5.15
2023-05-13T15:01:21.709Z,5.00
2023-05-13T15:03:49.775Z,4.55
2023-05-13T15:06:17.865Z,4.97
2023-05-13T15:08:45.957Z,4.97
2023-05-13T15:11:15.391Z,4.97
2023-05-13T15:13:43.394Z,4.78
2023-05-13T15:16:11.684Z,5.78
2023-05-13T15:18:39.731Z,8.00
2023-05-13T15:21:07.867Z,4.57
2023-05-13T15:23:35.913Z,4.72
2023-05-13T15:26:04.004Z,5.05
2023-05-13T15:28:33.455Z,5.32
2023-05-13T15:31:01.476Z,3.85
2023-05-13T15:33:29.604Z,4.45
2023-05-13T15:35:57.630Z,3.88
2023-05-13T15:38:25.655Z,4.63
2023-05-13T15:40:53.881Z,7.43
2023-05-13T15:43:21.918Z,5.05
2023-05-13T15:45:53.506Z,5.88
2023-05-13T15:48:21.827Z,5.45
2023-05-13T15:50:49.840Z,4.47
2023-05-13T15:53:17.915Z,5.95
2023-05-13T15:55:45.883Z,6.35
2023-05-13T15:58:13.844Z,7.68
2023-05-13T16:00:41.980Z,5.63
2023-05-13T16:03:11.363Z,8.68
2023-05-13T16:05:40.164Z,8.00
2023-05-13T16:08:08.110Z,7.78
2023-05-13T16:10:36.220Z,9.02
2023-05-13T16:13:04.198Z,6.97
2023-05-13T16:15:32.302Z,7.28
2023-05-13T16:18:00.303Z,6.53
2023-05-13T16:20:29.726Z,6.57
2023-05-13T16:22:57.659Z,5.97
2023-05-13T16:25:27.023Z,6.07
2023-05-13T16:27:56.588Z,7.88
2023-05-13T16:30:25.043Z,7.97
2023-05-13T16:32:54.501Z,8.85
2023-05-13T16:35:22.747Z,6.18
2023-05-13T16:37:52.158Z,10.27
2023-05-13T16:40:20.396Z,7.35
2023-05-13T16:42:48.553Z,5.70
2023-05-13T16:45:16.557Z,6.50
2023-05-13T16:47:44.660Z,5.45
2023-05-13T16:50:12.693Z,6.05
2023-05-13T16:52:40.744Z,7.05
2023-05-13T16:55:10.909Z,6.72
2023-05-13T16:57:38.826Z,8.00
2023-05-13T17:00:08.483Z,6.93
2023-05-13T17:02:36.892Z,6.18
2023-05-13T17:05:05.497Z,6.25
2023-05-13T17:07:33.645Z,6.60
2023-05-13T17:10:04.914Z,5.03
2023-05-13T17:12:34.483Z,6.70
2023-05-13T17:15:03.534Z,5.05
2023-05-13T17:17:31.605Z,4.90
2023-05-13T17:19:59.607Z,6.25
2023-05-13T17:22:27.941Z,5.50
2023-05-13T17:24:56.077Z,5.88
2023-05-13T17:27:24.268Z,7.75
2023-05-13T17:29:53.597Z,5.85
2023-05-13T17:32:22.282Z,5.97
2023-05-13T17:34:50.302Z,5.43
2023-05-13T17:37:18.299Z,5.78
2023-05-13T17:39:46.253Z,7.22
2023-05-13T17:42:14.289Z,5.45
2023-05-13T17:44:42.329Z,6.90
2023-05-13T17:47:11.682Z,6.40
2023-05-13T17:49:39.703Z,6.07
2023-05-13T17:52:07.971Z,6.47
2023-05-13T17:54:37.012Z,9.02
2023-05-13T17:57:05.319Z,6.07
2023-05-13T17:59:33.416Z,6.55
2023-05-13T18:02:03.859Z,6.10
2023-05-13T18:04:33.250Z,6.85
2023-05-13T18:07:05.986Z,5.95
2023-05-13T18:09:34.024Z,8.02
2023-05-13T18:12:03.138Z,6.78
2023-05-13T18:14:32.363Z,5.72
2023-05-13T18:17:01.861Z,6.93
2023-05-13T18:19:29.799Z,5.80
2023-05-13T18:21:59.580Z,8.93
2023-05-13T18:24:27.671Z,8.60
2023-05-13T18:26:55.746Z,8.75
2023-05-13T18:29:24.186Z,7.40
2023-05-13T18:31:52.235Z,6.93
2023-05-13T18:34:20.339Z,9.07
2023-05-13T18:36:48.879Z,8.77
2023-05-13T18:39:19.640Z,9.52
2023-05-13T18:41:47.553Z,7.95
2023-05-13T18:44:15.544Z,5.85
2023-05-13T18:46:44.422Z,7.15
2023-05-13T18:49:12.588Z,6.78
2023-05-13T18:51:40.612Z,8.00
2023-05-13T18:54:14.860Z,7.85
2023-05-13T18:56:44.987Z,7.32
2023-05-13T18:59:13.431Z,7.35
2023-05-13T19:01:42.286Z,9.98
2023-05-13T19:04:12.314Z,7.30
2023-05-13T19:06:40.908Z,7.85
2023-05-13T19:09:08.922Z,9.15
2023-05-13T19:11:42.028Z,7.57
2023-05-13T19:14:12.766Z,10.73
2023-05-13T19:16:40.827Z,8.18
2023-05-13T19:19:08.867Z,7.63
2023-05-13T19:21:36.880Z,21.27
2023-05-13T19:24:05.329Z,10.73
2023-05-13T19:26:33.515Z,10.25
2023-05-13T19:29:01.556Z,8.02
2023-05-13T19:31:32.187Z,9.40
2023-05-13T19:34:01.439Z,9.50
2023-05-13T19:36:29.557Z,7.97
2023-05-13T19:38:57.863Z,12.35
2023-05-13T19:41:26.126Z,11.07
2023-05-13T19:43:54.066Z,9.07
2023-05-13T19:46:23.870Z,10.55
2023-05-13T19:48:53.419Z,8.98
2023-05-13T19:51:21.544Z,11.70
2023-05-13T19:53:52.330Z,9.60
2023-05-13T19:56:21.160Z,8.77
2023-05-13T19:58:49.248Z,8.95
2023-05-13T20:01:17.725Z,10.30
2023-05-13T20:03:45.949Z,8.07
2023-05-13T20:06:15.538Z,8.85
2023-05-13T20:08:43.791Z,9.40
2023-05-13T20:11:11.760Z,9.43
2023-05-13T20:13:40.171Z,9.13
2023-05-13T20:16:08.765Z,9.48
2023-05-13T20:18:38.186Z,12.63
2023-05-13T20:21:06.692Z,11.55
2023-05-13T20:23:36.324Z,14.63
2023-05-13T20:26:04.378Z,9.82
2023-05-13T20:28:32.501Z,11.93
2023-05-13T20:31:02.874Z,8.75
2023-05-13T20:33:31.040Z,11.20
2023-05-13T20:35:59.118Z,9.75
2023-05-13T20:38:27.215Z,9.05
2023-05-13T20:40:56.794Z,8.07
2023-05-13T20:43:24.771Z,11.60
2023-05-13T20:45:52.949Z,12.63
2023-05-13T20:48:21.260Z,11.05
2023-05-13T20:50:49.285Z,10.85
2023-05-13T20:53:17.429Z,11.45
2023-05-13T20:55:45.461Z,11.88
2023-05-13T20:58:16.703Z,11.02
2023-05-13T21:00:44.953Z,12.75
2023-05-13T21:03:13.586Z,11.95
2023-05-13T21:05:41.726Z,11.93
2023-05-13T21:08:09.950Z,11.23
2023-05-13T21:10:37.977Z,12.13
2023-05-13T21:13:05.984Z,11.60
2023-05-13T21:15:36.258Z,23.73
2023-05-13T21:18:04.476Z,11.45
2023-05-13T21:20:33.736Z,11.35
2023-05-13T21:23:01.892Z,12.13
2023-05-13T21:25:29.930Z,12.05
2023-05-13T21:27:57.955Z,11.07
2023-05-13T21:30:26.021Z,12.57
2023-05-13T21:32:55.874Z,12.43
2023-05-13T21:35:23.940Z,12.82
2023-05-13T21:37:52.368Z,12.95
2023-05-13T21:40:24.394Z,13.73
2023-05-13T21:42:52.609Z,12.93
2023-05-13T21:45:20.715Z,13.57
2023-05-13T21:47:48.748Z,12.63
2023-05-13T21:50:18.218Z,12.25
2023-05-13T21:52:46.228Z,12.05
2023-05-13T21:55:14.395Z,14.68
2023-05-13T21:57:42.380Z,14.18
2023-05-13T22:00:15.246Z,12.02
2023-05-13T22:02:43.492Z,16.60
2023-05-13T22:05:11.717Z,14.32
2023-05-13T22:07:41.268Z,16.55
2023-05-13T22:10:11.378Z,14.45
2023-05-13T22:12:39.399Z,18.10
2023-05-13T22:15:08.616Z,16.83
2023-05-13T22:17:36.840Z,14.90
2023-05-13T22:20:05.363Z,15.07
2023-05-13T22:22:33.354Z,14.65
2023-05-13T22:25:03.310Z,15.35
2023-05-13T22:27:31.316Z,15.77
2023-05-13T22:29:59.441Z,18.10
2023-05-13T22:32:27.455Z,15.30
2023-05-13T22:34:55.567Z,19.00
2023-05-13T22:37:23.623Z,15.90
2023-05-13T22:39:51.646Z,19.02
2023-05-13T22:42:21.252Z,15.23
2023-05-13T22:44:49.249Z,16.95
2023-05-13T22:47:17.340Z,14.80
2023-05-13T22:49:47.659Z,15.75
2023-05-13T22:52:15.727Z,15.93
2023-05-13T22:54:43.698Z,15.75
2023-05-13T22:57:11.925Z,14.82
2023-05-13T22:59:41.299Z,13.82
2023-05-13T23:02:12.498Z,15.80
2023-05-13T23:04:40.853Z,12.68
2023-05-13T23:07:11.467Z,16.48
2023-05-13T23:09:39.492Z,16.38
2023-05-13T23:12:08.535Z,13.13
2023-05-13T23:14:36.631Z,15.68
2023-05-13T23:17:06.129Z,14.73
2023-05-13T23:19:34.140Z,13.40
2023-05-13T23:22:02.088Z,13.63
2023-05-13T23:24:31.721Z,15.07
2023-05-13T23:26:59.776Z,12.98
2023-05-13T23:29:27.883Z,13.38
2023-05-13T23:31:56.193Z,12.68
2023-05-13T23:34:25.648Z,11.70
2023-05-13T23:36:53.812Z,12.45
2023-05-13T23:39:21.892Z,11.57
2023-05-13T23:41:50.136Z,11.07
2023-05-13T23:44:18.507Z,9.93
2023-05-13T23:46:46.545Z,12.45
2023-05-13T23:49:14.566Z,10.48
2023-05-13T23:51:44.287Z,11.73
2023-05-13T23:54:12.493Z,10.32
2023-05-13T23:56:40.456Z,10.30
2023-05-13T23:59:09.051Z,11.27
